Time;durP1;ratioP1;P1;durP2;ratioP2;P2;SDS_P1;SDS_P2;PMS_P1;PMS_P2;Temp;Humidity;BMP_temperature;BMP_pressure;BME280_temperature;BME280_humidity;BME280_pressure;Samples;Min_cycle;Max_cycle;Signal;HPM_P1;HPM_P2
2022/03/11 00:00:04;;;;;;;14.57;6.63;;;;;;;4.95;54.07;101874.25;5072487;28;20056;-70
2022/03/11 00:02:35;;;;;;;14.27;6.75;;;;;;;4.90;54.24;101863.91;5074094;28;20072;-69
2022/03/11 00:05:04;;;;;;;13.13;6.50;;;;;;;4.84;54.65;101861.47;5072034;28;20049;-70
2022/03/11 00:07:32;;;;;;;13.48;6.53;;;;;;;4.79;54.83;101868.53;5072277;28;20102;-69
2022/03/11 00:10:01;;;;;;;14.50;7.15;;;;;;;4.78;55.04;101866.81;5072332;28;20052;-69
2022/03/11 00:12:29;;;;;;;14.68;6.63;;;;;;;4.67;55.55;101863.63;5072453;28;20181;-69
2022/03/11 00:14:57;;;;;;;13.60;6.85;;;;;;;4.66;55.41;101861.91;5072224;28;20396;-69
2022/03/11 00:17:25;;;;;;;15.02;7.38;;;;;;;4.64;55.89;101863.72;5072649;28;20044;-70
2022/03/11 00:19:53;;;;;;;14.82;6.65;;;;;;;4.61;56.29;101866.38;5071033;28;20440;-70
2022/03/11 00:22:22;;;;;;;16.25;7.55;;;;;;;4.56;56.48;101861.28;5072164;28;20040;-69
2022/03/11 00:24:50;;;;;;;15.18;7.30;;;;;;;4.52;56.96;101863.09;5072027;28;20052;-69
2022/03/11 00:27:19;;;;;;;16.77;6.95;;;;;;;4.51;56.99;101858.78;5071964;28;20102;-69
2022/03/11 00:29:47;;;;;;;14.48;7.60;;;;;;;4.45;57.29;101860.69;5072299;28;20147;-69
2022/03/11 00:32:15;;;;;;;15.43;7.75;;;;;;;4.42;57.57;101861.63;5072156;28;20056;-69
2022/03/11 00:34:43;;;;;;;16.75;7.30;;;;;;;4.41;57.50;101862.50;5072059;28;20395;-69
2022/03/11 00:37:11;;;;;;;16.52;7.63;;;;;;;4.35;58.19;101868.72;5071944;28;20071;-70
2022/03/11 00:39:39;;;;;;;16.15;8.00;;;;;;;4.31;58.80;101853.16;5071772;28;20049;-69
2022/03/11 00:42:08;;;;;;;15.63;8.20;;;;;;;4.23;58.94;101856.81;5071627;28;20055;-70
2022/03/11 00:44:38;;;;;;;18.92;8.25;;;;;;;4.18;59.91;101860.41;5072246;28;20045;-69
2022/03/11 00:47:07;;;;;;;15.57;7.72;;;;;;;4.16;59.75;101860.44;5071864;28;20047;-69
2022/03/11 00:49:35;;;;;;;16.23;8.27;;;;;;;4.09;60.01;101855.41;5071977;28;20048;-69
2022/03/11 00:52:04;;;;;;;16.38;8.45;;;;;;;4.05;60.10;101852.03;5072316;28;20044;-69
2022/03/11 00:54:32;;;;;;;16.88;8.02;;;;;;;4.04;60.42;101855.50;5076076;28;20066;-69
2022/03/11 00:57:00;;;;;;;15.80;7.57;;;;;;;4.00;60.94;101848.66;5075538;28;20041;-69
2022/03/11 00:59:28;;;;;;;17.13;8.23;;;;;;;3.99;60.76;101849.53;5076079;28;20479;-69
2022/03/11 01:01:58;;;;;;;15.50;7.55;;;;;;;3.91;61.16;101848.84;5075739;28;20372;-69
2022/03/11 01:04:26;;;;;;;14.38;7.90;;;;;;;3.86;62.01;101847.19;5076196;28;20348;-69
2022/03/11 01:06:54;;;;;;;17.17;8.20;;;;;;;3.86;61.89;101847.19;5075557;28;20066;-69
2022/03/11 01:09:22;;;;;;;20.15;8.80;;;;;;;3.86;62.17;101844.59;5075618;28;20053;-69
2022/03/11 01:11:50;;;;;;;16.13;8.80;;;;;;;3.88;61.93;101839.34;5076048;28;20122;-69
2022/03/11 01:14:19;;;;;;;16.75;8.48;;;;;;;3.84;62.16;101835.09;5075739;28;20405;-69
2022/03/11 01:16:47;;;;;;;16.45;8.90;;;;;;;3.79;62.87;101826.53;5075547;28;20049;-69
2022/03/11 01:19:16;;;;;;;18.30;8.60;;;;;;;3.76;62.85;101824.84;5075586;28;20052;-69
2022/03/11 01:21:45;;;;;;;17.00;9.25;;;;;;;3.73;63.14;101824.91;5075478;28;20118;-69
2022/03/11 01:24:13;;;;;;;18.98;9.48;;;;;;;3.77;63.02;101817.91;5075461;28;20049;-69
2022/03/11 01:26:41;;;;;;;16.23;8.68;;;;;;;3.71;63.48;101821.50;5075280;28;20060;-69
2022/03/11 01:29:09;;;;;;;17.08;8.52;;;;;;;3.67;63.63;101819.84;5075205;28;20057;-69
2022/03/11 01:31:37;;;;;;;17.67;8.23;;;;;;;3.69;64.06;101813.72;5074868;28;20062;-69
2022/03/11 01:34:05;;;;;;;15.38;8.15;;;;;;;3.66;64.24;101815.53;5074792;28;20072;-69
2022/03/11 01:36:35;;;;;;;17.48;8.95;;;;;;;3.66;64.37;101810.34;5074872;28;20040;-69
2022/03/11 01:39:03;;;;;;;18.67;9.23;;;;;;;3.65;64.08;101812.06;5075106;28;20040;-60
2022/03/11 01:41:31;;;;;;;18.90;8.45;;;;;;;3.62;64.69;101806.09;5074936;28;20048;-69
2022/03/11 01:44:01;;;;;;;16.40;8.75;;;;;;;3.61;64.68;101799.16;5074907;28;20070;-69
2022/03/11 01:46:30;;;;;;;14.77;8.43;;;;;;;3.59;64.96;101806.16;5074759;28;20052;-69
2022/03/11 01:48:59;;;;;;;16.10;7.90;;;;;;;3.58;65.05;101794.88;5073499;28;20097;-69
2022/03/11 01:51:27;;;;;;;18.02;8.25;;;;;;;3.58;65.24;101783.63;5075152;28;20044;-69
2022/03/11 01:53:58;;;;;;;16.23;8.85;;;;;;;3.55;65.15;101784.53;5074815;28;20040;-69
2022/03/11 01:56:27;;;;;;;16.08;7.85;;;;;;;3.52;65.74;101784.59;5075032;28;20106;-69
2022/03/11 01:58:58;;;;;;;13.93;7.75;;;;;;;3.50;65.56;101779.41;5074989;28;20620;-70
2022/03/11 02:01:26;;;;;;;17.73;8.73;;;;;;;3.46;66.32;101776.91;5074873;28;20056;-69
2022/03/11 02:03:57;;;;;;;15.98;8.15;;;;;;;3.46;65.91;101777.75;5074095;28;20644;-70
2022/03/11 02:06:26;;;;;;;17.02;8.82;;;;;;;3.46;66.00;101771.72;5074624;28;20380;-69
2022/03/11 02:08:55;;;;;;;16.40;8.73;;;;;;;3.42;66.32;101773.50;5074603;28;20045;-69
2022/03/11 02:11:25;;;;;;;17.00;8.45;;;;;;;3.41;66.31;101773.53;5074872;28;20040;-69
2022/03/11 02:13:55;;;;;;;15.85;8.40;;;;;;;3.40;66.66;101771.84;5073378;28;20110;-69
2022/03/11 02:16:25;;;;;;;17.70;8.88;;;;;;;3.30;66.85;101763.34;5074621;28;20049;-69
2022/03/11 02:18:54;;;;;;;16.02;7.90;;;;;;;3.31;66.60;101758.16;5074493;28;20040;-69
2022/03/11 02:21:24;;;;;;;16.77;8.40;;;;;;;3.34;67.08;101757.22;5074589;28;20059;-69
2022/03/11 02:23:55;;;;;;;15.27;8.05;;;;;;;3.29;67.50;101753.88;5074563;28;20074;-69
2022/03/11 02:26:24;;;;;;;14.93;7.95;;;;;;;3.29;67.38;101757.31;5074007;28;20044;-69
2022/03/11 02:28:54;;;;;;;16.95;9.00;;;;;;;3.23;67.67;101749.63;5074399;28;20036;-69
2022/03/11 02:31:23;;;;;;;17.42;8.07;;;;;;;3.20;67.52;101745.38;5074494;28;20044;-69
2022/03/11 02:33:51;;;;;;;16.92;8.73;;;;;;;3.16;68.11;101743.72;5074432;28;20072;-69
2022/03/11 02:36:20;;;;;;;14.68;8.55;;;;;;;3.21;68.33;101743.63;5073868;28;20122;-69
2022/03/11 02:38:48;;;;;;;16.77;8.65;;;;;;;3.16;67.80;101737.66;5073598;28;20148;-69
2022/03/11 02:41:18;;;;;;;18.23;8.60;;;;;;;3.15;67.97;101731.59;5074149;28;20431;-69
2022/03/11 02:43:46;;;;;;;16.92;8.43;;;;;;;3.18;68.17;101728.09;5073991;28;20624;-69
2022/03/11 02:46:14;;;;;;;16.52;8.25;;;;;;;3.13;68.21;101733.34;5074127;28;20510;-69
2022/03/11 02:48:43;;;;;;;17.08;9.18;;;;;;;3.06;68.78;101738.72;5073864;28;20495;-69
2022/03/11 02:51:11;;;;;;;16.13;8.48;;;;;;;3.05;68.17;101732.66;5073983;28;20041;-69
2022/03/11 02:53:41;;;;;;;15.55;8.35;;;;;;;3.04;68.70;101731.81;5073682;28;20048;-69
2022/03/11 02:56:10;;;;;;;15.40;7.88;;;;;;;2.99;69.30;101727.59;5073630;28;20055;-69
2022/03/11 02:58:41;;;;;;;16.83;8.98;;;;;;;2.96;69.20;101728.50;5073503;28;20094;-70
2022/03/11 03:01:10;;;;;;;17.63;9.05;;;;;;;2.98;68.76;101723.28;5073269;28;20045;-69
2022/03/11 03:03:38;;;;;;;15.15;8.65;;;;;;;2.94;69.25;101727.66;5073474;28;20480;-69
2022/03/11 03:06:07;;;;;;;16.13;9.35;;;;;;;2.96;68.81;101715.50;5073600;28;20052;-69
2022/03/11 03:08:35;;;;;;;15.93;8.75;;;;;;;2.98;68.89;101716.31;5073590;28;20106;-69
2022/03/11 03:11:04;;;;;;;16.58;8.40;;;;;;;2.97;69.26;101717.22;5073372;28;20480;-69
2022/03/11 03:13:32;;;;;;;18.58;8.63;;;;;;;2.93;69.46;101714.69;5073491;28;20072;-69
2022/03/11 03:16:02;;;;;;;15.18;7.70;;;;;;;2.93;69.48;101710.38;5072521;28;20048;-69
2022/03/11 03:18:30;;;;;;;18.50;9.18;;;;;;;2.89;69.25;101711.31;5073471;28;20044;-69
2022/03/11 03:20:58;;;;;;;16.35;9.02;;;;;;;2.86;69.50;101714.84;5072049;28;20083;-69
2022/03/11 03:23:26;;;;;;;14.38;8.45;;;;;;;2.86;69.54;101708.75;5073384;28;20131;-69
2022/03/11 03:25:55;;;;;;;15.75;8.40;;;;;;;2.84;69.08;101708.78;5073144;28;20055;-69
2022/03/11 03:28:23;;;;;;;16.02;8.30;;;;;;;2.86;69.79;101708.75;5072993;28;20124;-69
2022/03/11 03:30:51;;;;;;;18.35;9.27;;;;;;;2.84;69.79;101714.00;5073151;28;20411;-69
2022/03/11 03:33:21;;;;;;;18.15;8.63;;;;;;;2.76;70.03;101710.69;5073077;28;20045;-69
2022/03/11 03:35:49;;;;;;;17.55;8.60;;;;;;;2.77;69.90;101707.22;5073052;28;20406;-69
2022/03/11 03:38:17;;;;;;;16.73;8.90;;;;;;;2.73;70.06;101707.28;5072738;28;20109;-69
2022/03/11 03:40:45;;;;;;;16.08;9.05;;;;;;;2.70;70.51;101709.06;5072987;28;20052;-69
2022/03/11 03:43:14;;;;;;;17.73;8.25;;;;;;;2.70;70.09;101709.06;5072872;28;20056;-70
2022/03/11 03:45:42;;;;;;;15.70;8.55;;;;;;;2.65;70.42;101700.50;5072341;28;20090;-69
2022/03/11 03:48:10;;;;;;;16.42;8.43;;;;;;;2.62;70.55;101704.88;5072152;28;20111;-69
2022/03/11 03:50:40;;;;;;;17.02;8.70;;;;;;;2.57;70.79;101698.94;5072686;28;20048;-69
2022/03/11 03:53:08;;;;;;;16.30;8.35;;;;;;;2.57;70.69;101698.94;5072703;28;20052;-69
2022/03/11 03:55:36;;;;;;;17.65;9.27;;;;;;;2.57;71.09;101698.94;5072987;28;20123;-69
2022/03/11 03:58:04;;;;;;;17.45;9.73;;;;;;;2.55;71.19;101698.97;5072749;28;20078;-69
2022/03/11 04:00:33;;;;;;;15.57;8.55;;;;;;;2.56;71.69;101705.00;5072687;28;20539;-69
2022/03/11 04:03:01;;;;;;;17.83;9.07;;;;;;;2.53;71.27;101701.56;5072792;28;20113;-69
2022/03/11 04:05:29;;;;;;;15.25;8.43;;;;;;;2.61;71.23;101695.38;5072682;28;20055;-69
2022/03/11 04:07:59;;;;;;;18.15;9.70;;;;;;;2.57;71.39;101697.19;5072395;28;20048;-69
2022/03/11 04:10:27;;;;;;;19.27;8.75;;;;;;;2.51;71.39;101692.09;5072569;28;20052;-69
2022/03/11 04:12:57;;;;;;;18.02;8.57;;;;;;;2.46;72.22;101689.56;5072592;28;20475;-69
2022/03/11 04:15:25;;;;;;;18.45;9.25;;;;;;;2.47;71.83;101686.09;5072679;28;20052;-69
2022/03/11 04:17:53;;;;;;;18.88;9.25;;;;;;;2.45;72.20;101682.66;5072265;28;20114;-69
2022/03/11 04:20:21;;;;;;;17.50;9.13;;;;;;;2.40;72.63;101694.91;5072055;28;20044;-69
2022/03/11 04:22:49;;;;;;;17.52;8.70;;;;;;;2.44;71.96;101686.16;5072075;28;20051;-69
2022/03/11 04:25:18;;;;;;;17.42;9.48;;;;;;;2.38;72.23;101683.66;5071956;28;20052;-69
2022/03/11 04:27:47;;;;;;;18.52;9.63;;;;;;;2.35;72.64;101671.59;5071784;28;20044;-69
2022/03/11 04:30:15;;;;;;;17.27;8.60;;;;;;;2.34;72.05;101680.25;5071860;28;20082;-68
2022/03/11 04:32:43;;;;;;;16.08;7.80;;;;;;;2.39;72.21;101687.97;5072222;28;20056;-68
2022/03/11 04:35:11;;;;;;;14.95;8.05;;;;;;;2.38;72.24;101683.66;5072257;28;20379;-68
2022/03/11 04:37:40;;;;;;;14.32;8.60;;;;;;;2.33;71.96;101685.47;5072100;28;20557;-68
2022/03/11 04:40:10;;;;;;;16.48;8.65;;;;;;;2.26;72.40;101678.69;5072171;28;20040;-68
2022/03/11 04:42:39;;;;;;;17.10;8.70;;;;;;;2.15;73.42;101679.72;5071888;28;20045;-68
2022/03/11 04:45:08;;;;;;;21.67;8.02;;;;;;;2.10;73.46;101681.53;5071842;28;20158;-68
2022/03/11 04:47:36;;;;;;;14.70;8.45;;;;;;;2.14;72.98;101678.00;5072177;28;20048;-68
2022/03/11 04:50:05;;;;;;;17.10;8.48;;;;;;;2.18;72.85;101681.41;5072057;28;20045;-68
2022/03/11 04:52:33;;;;;;;16.77;8.52;;;;;;;2.19;73.16;101673.56;5072372;28;20048;-71
2022/03/11 04:55:02;;;;;;;15.75;8.55;;;;;;;2.14;72.64;101674.53;5072342;28;20415;-69
2022/03/11 04:57:30;;;;;;;13.43;8.00;;;;;;;2.11;72.94;101675.44;5071908;28;20040;-68
2022/03/11 05:00:00;;;;;;;14.77;8.27;;;;;;;2.10;72.66;101680.66;5071898;28;20045;-68
2022/03/11 05:02:29;;;;;;;14.60;8.10;;;;;;;2.10;72.40;101671.16;5072233;28;20522;-68
2022/03/11 05:04:57;;;;;;;14.00;7.25;;;;;;;2.09;72.46;101685.00;5071755;28;20535;-70
2022/03/11 05:07:25;;;;;;;17.45;7.88;;;;;;;2.10;72.03;101678.06;5071640;28;20056;-69
2022/03/11 05:09:53;;;;;;;13.43;7.70;;;;;;;2.10;71.76;101680.66;5071312;28;20037;-69
2022/03/11 05:12:22;;;;;;;17.38;7.53;;;;;;;2.16;71.84;101684.03;5071849;28;20075;-69
2022/03/11 05:14:50;;;;;;;15.00;8.02;;;;;;;2.22;71.14;101675.28;5071816;28;20518;-69
2022/03/11 05:17:20;;;;;;;17.42;7.88;;;;;;;2.25;71.70;101676.97;5071990;28;20102;-68
2022/03/11 05:19:49;;;;;;;17.83;7.70;;;;;;;2.25;71.43;101676.97;5071693;28;20425;-69
2022/03/11 05:22:18;;;;;;;14.95;7.60;;;;;;;2.30;71.12;101672.56;5071785;28;20068;-69
2022/03/11 05:24:46;;;;;;;15.10;7.50;;;;;;;2.39;71.10;101672.41;5104060;28;20155;-69
2022/03/11 05:27:14;;;;;;;14.70;7.03;;;;;;;2.42;70.98;101667.16;5071968;28;20056;-69
2022/03/11 05:29:42;;;;;;;14.73;7.30;;;;;;;2.51;70.70;101660.94;5071616;28;20414;-69
2022/03/11 05:32:12;;;;;;;15.75;7.20;;;;;;;2.60;70.09;101660.75;5070295;28;20064;-69
2022/03/11 05:34:42;;;;;;;13.60;7.10;;;;;;;2.52;69.91;101663.50;5071765;28;20098;-69
2022/03/11 05:37:11;;;;;;;13.85;7.30;;;;;;;2.62;70.20;101663.31;5071560;28;20527;-70
2022/03/11 05:39:39;;;;;;;16.33;7.93;;;;;;;2.56;70.52;101664.28;5072379;28;20110;-69
2022/03/11 05:42:08;;;;;;;17.08;7.65;;;;;;;2.62;69.79;101656.41;5075179;28;20070;-68
2022/03/11 05:44:36;;;;;;;15.98;7.50;;;;;;;2.59;70.39;101653.88;5075351;28;20040;-69
2022/03/11 05:47:05;;;;;;;14.98;7.57;;;;;;;2.61;70.37;101653.84;5075459;28;20072;-69
2022/03/11 05:49:33;;;;;;;14.55;7.32;;;;;;;2.56;69.99;101653.06;5075078;28;20063;-69
2022/03/11 05:52:03;;;;;;;15.55;7.97;;;;;;;2.57;70.18;101652.19;5075206;28;20044;-69
2022/03/11 05:54:32;;;;;;;16.75;7.45;;;;;;;2.56;70.27;101650.47;5075385;28;20051;-68
2022/03/11 05:57:00;;;;;;;16.77;7.40;;;;;;;2.54;70.44;101651.34;5073960;28;20090;-69
2022/03/11 05:59:29;;;;;;;18.10;7.68;;;;;;;2.56;70.65;101643.50;5075129;28;20055;-69
2022/03/11 06:01:57;;;;;;;18.95;7.60;;;;;;;2.49;70.95;101644.53;5074880;28;20102;-69
2022/03/11 06:04:29;;;;;;;14.32;7.90;;;;;;;2.53;70.43;101640.97;5074940;28;20069;-69
2022/03/11 06:06:57;;;;;;;14.93;7.53;;;;;;;2.50;70.92;101652.28;5074577;28;20056;-69
2022/03/11 06:09:26;;;;;;;16.63;7.50;;;;;;;2.53;70.76;101646.19;5074586;28;20380;-69
2022/03/11 06:11:55;;;;;;;15.25;7.05;;;;;;;2.65;70.04;101647.69;5074692;28;20041;-70
2022/03/11 06:14:23;;;;;;;16.25;8.05;;;;;;;2.52;70.45;101637.53;5073433;28;20040;-70
2022/03/11 06:16:51;;;;;;;16.40;7.93;;;;;;;2.63;70.18;101644.25;5074658;28;20077;-69
2022/03/11 06:19:19;;;;;;;13.57;6.82;;;;;;;2.61;70.29;101643.44;5074669;28;20056;-70
2022/03/11 06:21:47;;;;;;;16.67;7.95;;;;;;;2.62;70.28;101646.00;5074563;28;20079;-69
2022/03/11 06:24:17;;;;;;;16.77;7.90;;;;;;;2.62;70.21;101640.81;5074614;28;20056;-69
2022/03/11 06:26:47;;;;;;;15.68;7.25;;;;;;;2.66;70.28;101641.63;5074329;28;20124;-68
2022/03/11 06:29:15;;;;;;;14.23;7.07;;;;;;;2.74;69.72;101637.13;5073773;28;20388;-68
2022/03/11 06:31:43;;;;;;;16.23;7.93;;;;;;;2.75;70.00;101638.81;5074243;28;20053;-69
2022/03/11 06:34:11;;;;;;;16.88;6.90;;;;;;;2.72;70.06;101638.88;5074474;28;20047;-68
2022/03/11 06:36:39;;;;;;;14.48;7.70;;;;;;;2.78;69.88;101640.50;5074408;28;20052;-68
2022/03/11 06:39:08;;;;;;;17.13;7.45;;;;;;;2.79;69.83;101637.88;5074248;28;20052;-68
2022/03/11 06:41:36;;;;;;;16.52;7.25;;;;;;;3.04;69.08;101635.63;5074282;28;20487;-68
2022/03/11 06:44:06;;;;;;;15.23;7.63;;;;;;;3.03;68.78;101635.69;5074131;28;20056;-69
2022/03/11 06:46:34;;;;;;;13.93;7.35;;;;;;;3.07;68.26;101642.53;5074156;28;20060;-69
2022/03/11 06:49:03;;;;;;;14.60;7.75;;;;;;;3.11;68.69;101638.09;5074168;28;20048;-68
2022/03/11 06:51:31;;;;;;;15.90;8.02;;;;;;;3.12;68.53;101637.22;5073717;28;20066;-69
2022/03/11 06:54:04;;;;;;;16.48;8.02;;;;;;;3.18;68.36;101644.91;5073884;28;20056;-68
2022/03/11 06:56:32;;;;;;;15.10;7.57;;;;;;;3.21;68.28;101635.25;5074230;28;20048;-69
2022/03/11 06:59:00;;;;;;;16.77;7.78;;;;;;;3.37;67.69;101634.94;5073858;28;20170;-69
2022/03/11 07:01:30;;;;;;;13.98;7.38;;;;;;;3.44;66.93;101630.47;5072209;28;20408;-69
2022/03/11 07:04:00;;;;;;;14.75;7.50;;;;;;;3.46;67.46;101632.13;5073767;28;20048;-69
2022/03/11 07:06:29;;;;;;;15.73;7.85;;;;;;;3.63;66.60;101626.53;5073901;28;20044;-69
2022/03/11 07:08:57;;;;;;;12.90;7.15;;;;;;;3.72;66.08;101628.06;5073872;28;20507;-69
2022/03/11 07:11:25;;;;;;;16.33;8.13;;;;;;;3.81;65.76;101630.44;5073830;28;20044;-69
2022/03/11 07:13:53;;;;;;;17.27;7.90;;;;;;;3.94;65.15;101627.53;5073710;28;20048;-69
2022/03/11 07:16:21;;;;;;;17.15;8.00;;;;;;;3.95;65.24;101616.22;5073575;28;20141;-70
2022/03/11 07:18:51;;;;;;;16.17;7.82;;;;;;;4.05;65.35;101628.97;5073588;28;20045;-70
2022/03/11 07:21:19;;;;;;;15.50;7.78;;;;;;;4.17;64.92;101620.00;5073325;28;20454;-69
2022/03/11 07:23:54;;;;;;;16.02;8.38;;;;;;;4.20;64.70;101624.28;5073431;28;20040;-69
2022/03/11 07:26:22;;;;;;;15.82;7.45;;;;;;;4.42;63.79;101635.00;5073412;28;20063;-69
2022/03/11 07:28:50;;;;;;;20.65;8.48;;;;;;;4.50;63.81;101638.25;5073423;28;20045;-69
2022/03/11 07:31:26;;;;;;;16.35;8.52;;;;;;;4.59;63.43;101646.69;5073372;28;20049;-70
2022/03/11 07:33:56;;;;;;;17.30;8.25;;;;;;;4.71;63.51;101649.81;5072969;28;20048;-70
2022/03/11 07:36:24;;;;;;;14.50;8.02;;;;;;;4.83;62.90;101630.38;5073159;28;20053;-69
2022/03/11 07:38:53;;;;;;;15.02;7.97;;;;;;;4.90;62.59;101620.63;5072989;28;20040;-70
2022/03/11 07:41:26;;;;;;;17.30;8.60;;;;;;;5.07;61.78;101631.44;5072698;28;20072;-70
2022/03/11 07:43:55;;;;;;;15.68;7.93;;;;;;;5.21;61.93;101625.78;5073109;28;20048;-70
2022/03/11 07:46:41;;;;;;;16.00;7.78;;;;;;;5.35;61.08;101638.41;5073116;28;20044;-69
2022/03/11 07:49:11;;;;;;;15.45;8.40;;;;;;;5.41;60.80;101637.38;5072929;28;20098;-70
2022/03/11 07:51:40;;;;;;;17.00;8.93;;;;;;;5.56;61.11;101634.28;5072977;28;20041;-70
2022/03/11 07:54:08;;;;;;;18.23;8.32;;;;;;;5.71;60.94;101632.09;5072713;28;20040;-71
2022/03/11 07:56:36;;;;;;;21.10;8.30;;;;;;;5.89;59.46;101631.50;5072271;28;20127;-69
2022/03/11 07:59:06;;;;;;;15.13;8.27;;;;;;;6.06;58.71;101627.50;5071326;28;20090;-69
2022/03/11 08:01:35;;;;;;;17.17;8.25;;;;;;;6.20;57.94;101622.66;5072350;28;20049;-70
2022/03/11 08:04:05;;;;;;;21.45;9.57;;;;;;;6.44;58.41;101620.09;5072264;28;20052;-70
2022/03/11 08:06:36;;;;;;;18.95;9.20;;;;;;;6.53;57.90;101625.00;5071195;28;20098;-70
2022/03/11 08:09:04;;;;;;;18.70;9.60;;;;;;;6.67;56.67;101621.03;5072617;28;20063;-70
2022/03/11 08:11:32;;;;;;;16.60;8.88;;;;;;;6.82;57.15;101619.63;5072587;28;20763;-70
2022/03/11 08:14:00;;;;;;;19.60;9.52;;;;;;;6.93;55.83;101612.22;5072489;28;20047;-70
2022/03/11 08:16:29;;;;;;;17.80;10.65;;;;;;;7.00;55.64;101611.09;5072505;28;20498;-70
2022/03/11 08:18:58;;;;;;;17.73;9.57;;;;;;;7.15;54.12;101614.88;5072389;28;20454;-70
2022/03/11 08:21:26;;;;;;;21.83;9.50;;;;;;;7.33;54.33;101604.63;5072063;28;20124;-70
2022/03/11 08:23:56;;;;;;;18.67;8.48;;;;;;;7.45;53.90;101607.59;5071910;28;20076;-70
2022/03/11 08:26:25;;;;;;;17.25;9.52;;;;;;;7.54;52.76;101608.13;5070873;28;20066;-70
2022/03/11 08:28:53;;;;;;;16.25;9.65;;;;;;;7.78;53.16;101601.91;5072224;28;20054;-70
2022/03/11 08:31:41;;;;;;;18.27;9.57;;;;;;;7.97;52.05;101595.06;5072138;28;20072;-70
2022/03/11 08:34:10;;;;;;;22.60;9.93;;;;;;;8.18;51.97;101594.13;5072107;28;20060;-70
2022/03/11 08:36:39;;;;;;;16.77;9.70;;;;;;;8.09;50.82;101592.75;5072193;28;20468;-73
2022/03/11 08:39:10;;;;;;;17.40;9.50;;;;;;;8.32;50.92;101590.91;5072259;28;20195;-71
2022/03/11 08:41:38;;;;;;;20.63;12.30;;;;;;;8.54;50.70;101590.00;5072279;28;20048;-71
2022/03/11 08:44:07;;;;;;;19.17;9.65;;;;;;;8.50;49.94;101586.66;5072215;28;20500;-72
2022/03/11 08:46:37;;;;;;;18.85;10.00;;;;;;;8.45;49.48;101596.50;5072307;28;20083;-69
2022/03/11 08:49:07;;;;;;;18.02;9.73;;;;;;;8.72;48.96;101593.56;5072153;28;20518;-70
2022/03/11 08:51:36;;;;;;;17.70;9.93;;;;;;;8.98;49.51;101591.50;5072138;28;20052;-70
2022/03/11 08:54:04;;;;;;;17.73;9.88;;;;;;;8.94;48.19;101586.41;5072185;28;20044;-70
2022/03/11 08:56:34;;;;;;;18.90;10.25;;;;;;;9.05;48.05;101570.19;5071900;28;20040;-70
2022/03/11 08:59:02;;;;;;;20.23;10.52;;;;;;;8.96;47.75;101575.84;5072028;28;20098;-70
2022/03/11 09:01:30;;;;;;;20.02;10.98;;;;;;;9.16;48.13;101577.50;5071958;28;20048;-70
2022/03/11 09:03:58;;;;;;;19.15;10.13;;;;;;;9.27;48.12;101566.50;5071994;28;20479;-70
2022/03/11 09:06:27;;;;;;;19.48;10.40;;;;;;;9.52;47.45;101568.81;5071891;28;20052;-70
2022/03/11 09:08:55;;;;;;;19.73;10.48;;;;;;;9.64;46.58;101565.56;5072117;28;20048;-70
2022/03/11 09:11:23;;;;;;;22.30;11.18;;;;;;;9.73;46.63;101566.03;5072305;28;20120;-71
2022/03/11 09:13:53;;;;;;;17.95;10.93;;;;;;;9.95;46.38;101555.28;5072942;28;20048;-70
2022/03/11 09:16:21;;;;;;;19.52;10.73;;;;;;;10.07;45.71;101559.91;5075336;28;20041;-70
2022/03/11 09:18:50;;;;;;;19.05;10.60;;;;;;;9.96;44.73;101547.31;5075730;28;20119;-70
2022/03/11 09:21:18;;;;;;;22.23;10.40;;;;;;;10.14;45.48;101549.91;5075707;28;20066;-70
2022/03/11 09:23:47;;;;;;;22.15;11.07;;;;;;;10.21;45.68;101540.81;5075552;28;20518;-70
2022/03/11 09:26:16;;;;;;;22.35;11.75;;;;;;;10.29;45.31;101548.28;5075630;28;20154;-70
2022/03/11 09:28:44;;;;;;;21.00;11.68;;;;;;;10.23;44.31;101538.94;5088841;28;20040;-70
2022/03/11 09:31:14;;;;;;;25.08;11.40;;;;;;;10.42;44.15;101540.63;5095652;28;20081;-70
2022/03/11 09:33:42;;;;;;;20.73;11.98;;;;;;;10.54;43.65;101545.22;5095790;28;20516;-70
2022/03/11 09:36:12;;;;;;;23.58;11.63;;;;;;;10.77;43.08;101546.59;5095030;28;20048;-70
2022/03/11 09:38:40;;;;;;;21.95;11.93;;;;;;;10.70;43.35;101544.38;5095465;28;20059;-70
2022/03/11 09:41:09;;;;;;;20.55;11.38;;;;;;;10.82;43.11;101541.09;5095462;28;20048;-68
2022/03/11 09:43:38;;;;;;;24.98;12.30;;;;;;;10.96;43.34;101532.41;5094183;28;20094;-71
2022/03/11 09:46:07;;;;;;;25.60;12.43;;;;;;;10.87;45.44;101533.78;5088247;28;20048;-70
2022/03/11 09:48:37;;;;;;;20.65;11.73;;;;;;;11.06;43.56;101522.25;5074872;28;20414;-72
2022/03/11 09:51:05;;;;;;;30.35;13.63;;;;;;;11.25;45.28;101529.94;5074483;28;20108;-70
2022/03/11 09:53:38;;;;;;;26.48;11.85;;;;;;;11.29;45.79;101524.41;5075132;28;20072;-72
2022/03/11 09:56:06;;;;;;;20.00;10.93;;;;;;;11.41;45.19;101516.72;5076794;28;20067;-68
2022/03/11 09:58:35;;;;;;;23.50;12.63;;;;;;;11.61;43.68;101512.94;5095388;28;20050;-71
2022/03/11 10:01:05;;;;;;;25.98;12.18;;;;;;;11.56;42.13;101520.25;5095269;28;20040;-71
2022/03/11 10:03:33;;;;;;;21.27;11.50;;;;;;;11.35;42.15;101527.63;5093884;28;20052;-68
2022/03/11 10:06:03;;;;;;;32.63;14.48;;;;;;;11.61;46.06;101526.94;5094911;28;20067;-68
2022/03/11 10:08:33;;;;;;;22.55;11.73;;;;;;;11.86;41.55;101516.75;5076291;28;20503;-70
2022/03/11 10:11:18;;;;;;;21.58;11.70;;;;;;;11.71;41.68;101502.69;5074531;28;20048;-74
2022/03/11 10:13:47;;;;;;;23.58;12.27;;;;;;;11.99;41.67;101513.31;5053931;28;20090;-73
2022/03/11 10:16:20;;;;;;;19.25;11.77;;;;;;;11.93;41.28;101511.03;5053018;28;20049;-72
2022/03/11 10:18:56;;;;;;;25.65;12.55;;;;;;;11.87;41.74;101510.53;5070712;28;20063;-74
2022/03/11 10:21:36;;;;;;;22.35;12.38;;;;;;;11.86;41.76;101500.94;5060253;28;20403;-71
2022/03/11 10:24:07;;;;;;;21.77;11.73;;;;;;;12.16;41.92;101491.19;5059938;28;20048;-72
2022/03/11 10:26:39;;;;;;;24.00;12.23;;;;;;;12.28;42.61;101491.38;5071398;28;20040;-70
2022/03/11 10:29:11;;;;;;;23.40;12.93;;;;;;;12.30;41.80;101490.34;5063268;28;20079;-70
2022/03/11 10:31:43;;;;;;;22.27;12.05;;;;;;;12.41;41.06;101491.47;5065000;28;20029;-72
2022/03/11 10:34:18;;;;;;;22.80;12.77;;;;;;;12.53;40.75;101498.63;5058428;28;20045;-67
2022/03/11 10:36:49;;;;;;;25.10;12.57;;;;;;;12.68;41.68;101495.00;5064262;28;20045;-73
2022/03/11 10:39:19;;;;;;;25.25;12.25;;;;;;;12.70;40.45;101488.78;5062960;28;20381;-69
2022/03/11 10:41:49;;;;;;;24.40;13.00;;;;;;;12.71;40.96;101495.72;5056162;28;20045;-71
2022/03/11 10:44:23;;;;;;;24.08;12.50;;;;;;;12.84;41.34;101481.66;5060709;28;20041;-68
2022/03/11 10:46:51;;;;;;;30.58;14.00;;;;;;;13.19;41.06;101475.03;5066858;28;20059;-68
2022/03/11 10:49:27;;;;;;;31.70;15.23;;;;;;;13.10;40.76;101479.13;5059358;28;20410;-70
2022/03/11 10:51:57;;;;;;;22.67;12.50;;;;;;;13.48;40.61;101473.13;5064064;28;20045;-68
2022/03/11 10:54:27;;;;;;;21.48;12.43;;;;;;;13.61;39.56;101472.28;5062352;28;20098;-68
2022/03/11 10:56:57;;;;;;;21.80;12.70;;;;;;;13.61;38.13;101467.84;5060915;28;20048;-70
2022/03/11 10:59:28;;;;;;;19.67;11.40;;;;;;;13.49;39.44;101471.31;5061455;28;20045;-68
2022/03/11 11:01:57;;;;;;;24.58;13.05;;;;;;;13.65;40.74;101466.69;5061542;28;20067;-67
2022/03/11 11:04:27;;;;;;;21.48;12.60;;;;;;;13.70;39.00;101461.06;5057095;28;20174;-67
2022/03/11 11:06:57;;;;;;;26.13;14.45;;;;;;;13.66;41.05;101457.81;5057644;28;20049;-66
2022/03/11 11:09:26;;;;;;;21.23;12.55;;;;;;;13.73;42.75;101449.44;5062438;28;20051;-67
2022/03/11 11:11:54;;;;;;;24.52;13.55;;;;;;;13.65;39.52;101444.69;5055782;28;20079;-68
2022/03/11 11:14:22;;;;;;;22.92;13.18;;;;;;;13.78;39.20;101452.63;5055608;28;20049;-67
2022/03/11 11:16:55;;;;;;;23.30;12.70;;;;;;;13.92;40.61;101439.28;5064211;28;20098;-67
2022/03/11 11:19:25;;;;;;;24.13;13.35;;;;;;;14.20;38.77;101443.47;5068467;28;20499;-68
2022/03/11 11:21:53;;;;;;;22.00;13.15;;;;;;;14.08;38.48;101438.22;5062224;28;20044;-68
2022/03/11 11:24:25;;;;;;;28.05;13.52;;;;;;;13.88;39.29;101437.81;5057480;28;20048;-67
2022/03/11 11:26:55;;;;;;;21.85;12.13;;;;;;;14.01;38.21;101438.63;5055171;28;20036;-68
2022/03/11 11:29:27;;;;;;;22.00;12.75;;;;;;;13.94;39.25;101434.72;5070044;28;20078;-64